sensor_id;sensor_type;location;lat;lon;timestamp;pressure;altitude;pressure_sealevel;temperature;humidity
29825;BME280;16713;52.916;12.834;2023-03-07T00:00:34;99380.00;;;-0.51;77.23
29825;BME280;16713;52.916;12.834;2023-03-07T00:03:00;99378.09;;;-0.50;76.56
29825;BME280;16713;52.916;12.834;2023-03-07T00:05:26;99373.22;;;-0.23;75.49
29825;BME280;16713;52.916;12.834;2023-03-07T00:07:53;99368.91;;;-0.41;76.91
29825;BME280;16713;52.916;12.834;2023-03-07T00:10:19;99365.44;;;-0.41;76.41
29825;BME280;16713;52.916;12.834;2023-03-07T00:12:46;99355.78;;;-0.42;76.60
29825;BME280;16713;52.916;12.834;2023-03-07T00:15:12;99349.75;;;-0.56;76.87
29825;BME280;16713;52.916;12.834;2023-03-07T00:17:38;99343.88;;;-0.58;76.16
29825;BME280;16713;52.916;12.834;2023-03-07T00:20:05;99334.09;;;-0.29;76.32
29825;BME280;16713;52.916;12.834;2023-03-07T00:22:33;99335.66;;;-0.45;76.21
29825;BME280;16713;52.916;12.834;2023-03-07T00:24:59;99329.47;;;-0.45;76.60
29825;BME280;16713;52.916;12.834;2023-03-07T00:27:26;99323.31;;;-0.37;76.54
29825;BME280;16713;52.916;12.834;2023-03-07T00:29:52;99316.78;;;-0.36;76.25
29825;BME280;16713;52.916;12.834;2023-03-07T00:32:19;99316.16;;;-0.67;76.50
29825;BME280;16713;52.916;12.834;2023-03-07T00:34:45;99309.00;;;-0.63;76.68
29825;BME280;16713;52.916;12.834;2023-03-07T00:37:11;99303.03;;;-0.43;77.25
29825;BME280;16713;52.916;12.834;2023-03-07T00:39:38;99300.19;;;-0.38;76.75
29825;BME280;16713;52.916;12.834;2023-03-07T00:42:05;99295.91;;;-0.48;76.79
29825;BME280;16713;52.916;12.834;2023-03-07T00:44:31;99290.06;;;-0.41;77.00
29825;BME280;16713;52.916;12.834;2023-03-07T00:46:58;99287.50;;;-0.55;76.92
29825;BME280;16713;52.916;12.834;2023-03-07T00:49:24;99281.31;;;-0.47;77.10
29825;BME280;16713;52.916;12.834;2023-03-07T00:51:51;99278.31;;;-0.54;77.39
29825;BME280;16713;52.916;12.834;2023-03-07T00:54:17;99273.25;;;-0.47;77.38
29825;BME280;16713;52.916;12.834;2023-03-07T00:56:44;99267.06;;;-0.47;76.77
29825;BME280;16713;52.916;12.834;2023-03-07T00:59:10;99261.38;;;-0.54;76.63
29825;BME280;16713;52.916;12.834;2023-03-07T01:01:37;99255.34;;;-0.51;76.65
29825;BME280;16713;52.916;12.834;2023-03-07T01:04:03;99242.50;;;-0.37;77.55
29825;BME280;16713;52.916;12.834;2023-03-07T01:06:30;99239.53;;;-0.53;77.52
29825;BME280;16713;52.916;12.834;2023-03-07T01:08:58;99231.59;;;-0.32;76.96
29825;BME280;16713;52.916;12.834;2023-03-07T01:11:25;99222.41;;;-0.57;76.67
29825;BME280;16713;52.916;12.834;2023-03-07T01:13:55;99210.84;;;-0.66;77.48
29825;BME280;16713;52.916;12.834;2023-03-07T01:16:24;99202.28;;;-0.34;76.84
29825;BME280;16713;52.916;12.834;2023-03-07T01:18:52;99200.22;;;-0.37;77.05
29825;BME280;16713;52.916;12.834;2023-03-07T01:21:20;99185.31;;;-0.34;76.92
29825;BME280;16713;52.916;12.834;2023-03-07T01:23:47;99180.66;;;-0.08;77.50
29825;BME280;16713;52.916;12.834;2023-03-07T01:26:14;99165.63;;;-0.09;76.49
29825;BME280;16713;52.916;12.834;2023-03-07T01:28:41;99175.34;;;-0.25;77.05
29825;BME280;16713;52.916;12.834;2023-03-07T01:31:07;99164.19;;;-0.15;76.42
29825;BME280;16713;52.916;12.834;2023-03-07T01:33:33;99157.66;;;0.03;76.32
29825;BME280;16713;52.916;12.834;2023-03-07T01:36:00;99155.25;;;0.10;75.78
29825;BME280;16713;52.916;12.834;2023-03-07T01:38:26;99148.25;;;0.17;75.87
29825;BME280;16713;52.916;12.834;2023-03-07T01:40:54;99132.31;;;-0.05;76.02
29825;BME280;16713;52.916;12.834;2023-03-07T01:43:24;99119.31;;;-0.03;76.70
29825;BME280;16713;52.916;12.834;2023-03-07T01:48:29;99112.38;;;-0.12;77.34
29825;BME280;16713;52.916;12.834;2023-03-07T01:50:55;99103.66;;;0.20;76.58
29825;BME280;16713;52.916;12.834;2023-03-07T01:53:22;99098.16;;;0.16;76.25
29825;BME280;16713;52.916;12.834;2023-03-07T01:55:48;99094.75;;;-0.01;76.13
29825;BME280;16713;52.916;12.834;2023-03-07T01:58:15;99085.72;;;0.24;76.60
29825;BME280;16713;52.916;12.834;2023-03-07T02:00:41;99081.19;;;0.16;76.19
29825;BME280;16713;52.916;12.834;2023-03-07T02:03:14;99079.41;;;0.20;77.36
29825;BME280;16713;52.916;12.834;2023-03-07T02:05:57;99067.75;;;0.07;76.57
29825;BME280;16713;52.916;12.834;2023-03-07T02:08:25;99066.25;;;0.18;76.74
29825;BME280;16713;52.916;12.834;2023-03-07T02:10:52;99055.47;;;0.18;76.65
29825;BME280;16713;52.916;12.834;2023-03-07T02:13:19;99040.91;;;0.40;77.28
29825;BME280;16713;52.916;12.834;2023-03-07T02:15:45;99040.44;;;0.17;76.04
29825;BME280;16713;52.916;12.834;2023-03-07T02:18:13;99034.69;;;0.19;77.14
29825;BME280;16713;52.916;12.834;2023-03-07T02:20:53;99034.03;;;0.22;77.44
29825;BME280;16713;52.916;12.834;2023-03-07T02:23:30;99013.94;;;0.40;76.24
29825;BME280;16713;52.916;12.834;2023-03-07T02:26:06;99024.53;;;0.45;76.65
29825;BME280;16713;52.916;12.834;2023-03-07T02:28:36;99009.78;;;0.42;76.58
29825;BME280;16713;52.916;12.834;2023-03-07T02:31:05;99004.66;;;0.49;75.72
29825;BME280;16713;52.916;12.834;2023-03-07T02:33:31;98997.81;;;0.52;76.17
29825;BME280;16713;52.916;12.834;2023-03-07T02:36:05;98988.50;;;0.29;76.05
29825;BME280;16713;52.916;12.834;2023-03-07T02:38:33;98988.88;;;0.60;76.15
29825;BME280;16713;52.916;12.834;2023-03-07T02:41:03;98977.19;;;0.56;76.02
29825;BME280;16713;52.916;12.834;2023-03-07T02:43:29;98972.28;;;0.37;76.47
29825;BME280;16713;52.916;12.834;2023-03-07T02:45:56;98969.28;;;0.51;75.99
29825;BME280;16713;52.916;12.834;2023-03-07T02:48:22;98968.63;;;0.54;76.78
29825;BME280;16713;52.916;12.834;2023-03-07T02:50:48;98959.47;;;0.67;76.12
29825;BME280;16713;52.916;12.834;2023-03-07T02:53:15;98950.41;;;0.51;77.11
29825;BME280;16713;52.916;12.834;2023-03-07T02:55:41;98945.00;;;0.51;76.09
29825;BME280;16713;52.916;12.834;2023-03-07T02:58:07;98939.81;;;0.46;77.22
29825;BME280;16713;52.916;12.834;2023-03-07T03:00:34;98927.06;;;0.55;76.47
29825;BME280;16713;52.916;12.834;2023-03-07T03:03:00;98916.63;;;0.53;76.58
29825;BME280;16713;52.916;12.834;2023-03-07T03:05:27;98907.56;;;0.37;77.42
29825;BME280;16713;52.916;12.834;2023-03-07T03:07:53;98901.50;;;0.40;77.24
29825;BME280;16713;52.916;12.834;2023-03-07T03:10:19;98893.09;;;0.54;77.39
29825;BME280;16713;52.916;12.834;2023-03-07T03:12:46;98893.75;;;0.39;77.13
29825;BME280;16713;52.916;12.834;2023-03-07T03:15:12;98890.34;;;0.63;76.94
29825;BME280;16713;52.916;12.834;2023-03-07T03:17:39;98879.53;;;0.63;77.63
29825;BME280;16713;52.916;12.834;2023-03-07T03:20:05;98882.16;;;0.71;77.53
29825;BME280;16713;52.916;12.834;2023-03-07T03:22:33;98873.13;;;0.55;77.27
29825;BME280;16713;52.916;12.834;2023-03-07T03:24:59;98877.66;;;0.63;77.23
29825;BME280;16713;52.916;12.834;2023-03-07T03:27:25;98870.56;;;0.71;77.00
29825;BME280;16713;52.916;12.834;2023-03-07T03:29:54;98868.75;;;0.75;77.25
29825;BME280;16713;52.916;12.834;2023-03-07T03:32:21;98854.06;;;0.84;76.68
29825;BME280;16713;52.916;12.834;2023-03-07T03:34:47;98853.84;;;0.77;77.30
29825;BME280;16713;52.916;12.834;2023-03-07T03:37:13;98840.47;;;0.93;77.32
29825;BME280;16713;52.916;12.834;2023-03-07T03:39:40;98840.25;;;0.86;77.15
29825;BME280;16713;52.916;12.834;2023-03-07T03:42:06;98843.50;;;0.91;77.64
29825;BME280;16713;52.916;12.834;2023-03-07T03:44:33;98835.63;;;0.86;76.64
29825;BME280;16713;52.916;12.834;2023-03-07T03:46:59;98830.09;;;0.83;77.53
29825;BME280;16713;52.916;12.834;2023-03-07T03:49:26;98824.06;;;0.86;77.25
29825;BME280;16713;52.916;12.834;2023-03-07T03:51:52;98825.28;;;0.88;78.56
29825;BME280;16713;52.916;12.834;2023-03-07T03:54:19;98810.78;;;0.81;79.11
29825;BME280;16713;52.916;12.834;2023-03-07T03:56:45;98816.50;;;0.67;79.57
29825;BME280;16713;52.916;12.834;2023-03-07T03:59:11;98798.75;;;0.66;79.37
29825;BME280;16713;52.916;12.834;2023-03-07T04:01:38;98795.50;;;0.97;79.80
29825;BME280;16713;52.916;12.834;2023-03-07T04:04:04;98786.94;;;0.83;80.08
29825;BME280;16713;52.916;12.834;2023-03-07T04:06:31;98782.25;;;0.92;80.48
29825;BME280;16713;52.916;12.834;2023-03-07T04:08:58;98773.38;;;0.79;80.66
29825;BME280;16713;52.916;12.834;2023-03-07T04:11:25;98766.50;;;0.94;80.77
29825;BME280;16713;52.916;12.834;2023-03-07T04:13:51;98759.19;;;0.82;81.42
29825;BME280;16713;52.916;12.834;2023-03-07T04:16:18;98750.63;;;0.92;81.23
29825;BME280;16713;52.916;12.834;2023-03-07T04:18:45;98749.06;;;0.91;81.17
29825;BME280;16713;52.916;12.834;2023-03-07T04:21:11;98745.56;;;1.03;81.11
29825;BME280;16713;52.916;12.834;2023-03-07T04:23:38;98723.56;;;0.77;81.75
29825;BME280;16713;52.916;12.834;2023-03-07T04:26:05;98720.75;;;0.73;81.96
29825;BME280;16713;52.916;12.834;2023-03-07T04:28:38;98718.50;;;0.87;81.99
29825;BME280;16713;52.916;12.834;2023-03-07T04:31:08;98712.53;;;0.94;81.42
29825;BME280;16713;52.916;12.834;2023-03-07T04:33:35;98707.59;;;0.84;81.84
29825;BME280;16713;52.916;12.834;2023-03-07T04:36:01;98703.97;;;0.92;82.11
29825;BME280;16713;52.916;12.834;2023-03-07T04:38:27;98706.59;;;0.64;81.79
29825;BME280;16713;52.916;12.834;2023-03-07T04:40:54;98695.88;;;0.80;82.14
29825;BME280;16713;52.916;12.834;2023-03-07T04:43:20;98691.75;;;0.82;81.89
29825;BME280;16713;52.916;12.834;2023-03-07T04:45:46;98679.50;;;0.60;83.53
29825;BME280;16713;52.916;12.834;2023-03-07T04:48:13;98680.38;;;0.77;82.94
29825;BME280;16713;52.916;12.834;2023-03-07T04:50:39;98665.00;;;0.77;82.95
29825;BME280;16713;52.916;12.834;2023-03-07T04:53:06;98667.91;;;0.72;83.25
29825;BME280;16713;52.916;12.834;2023-03-07T04:55:32;98668.34;;;0.86;82.82
29825;BME280;16713;52.916;12.834;2023-03-07T04:57:58;98656.06;;;1.01;82.71
29825;BME280;16713;52.916;12.834;2023-03-07T05:00:25;98646.97;;;0.93;82.47
29825;BME280;16713;52.916;12.834;2023-03-07T05:02:52;98659.59;;;0.77;82.20
29825;BME280;16713;52.916;12.834;2023-03-07T05:05:21;98649.22;;;0.91;81.65
29825;BME280;16713;52.916;12.834;2023-03-07T05:07:47;98644.50;;;0.88;83.18
29825;BME280;16713;52.916;12.834;2023-03-07T05:10:14;98639.34;;;0.83;82.11
29825;BME280;16713;52.916;12.834;2023-03-07T05:12:40;98639.88;;;1.01;81.33
29825;BME280;16713;52.916;12.834;2023-03-07T05:15:07;98632.81;;;0.84;81.70
29825;BME280;16713;52.916;12.834;2023-03-07T05:17:33;98634.28;;;0.94;82.49
29825;BME280;16713;52.916;12.834;2023-03-07T05:20:00;98633.94;;;0.83;81.74
29825;BME280;16713;52.916;12.834;2023-03-07T05:22:26;98623.50;;;0.94;81.81
29825;BME280;16713;52.916;12.834;2023-03-07T05:24:52;98628.81;;;1.18;81.95
29825;BME280;16713;52.916;12.834;2023-03-07T05:27:19;98627.97;;;1.02;82.18
29825;BME280;16713;52.916;12.834;2023-03-07T05:29:45;98625.84;;;0.95;82.50
29825;BME280;16713;52.916;12.834;2023-03-07T05:32:11;98630.00;;;0.93;82.57
29825;BME280;16713;52.916;12.834;2023-03-07T05:34:38;98627.88;;;0.86;81.92
29825;BME280;16713;52.916;12.834;2023-03-07T05:37:04;98632.63;;;1.17;82.23
29825;BME280;16713;52.916;12.834;2023-03-07T05:39:30;98617.91;;;1.14;82.40
29825;BME280;16713;52.916;12.834;2023-03-07T05:41:57;98625.16;;;0.86;81.77
29825;BME280;16713;52.916;12.834;2023-03-07T05:44:23;98625.25;;;1.02;82.29
29825;BME280;16713;52.916;12.834;2023-03-07T05:46:49;98630.03;;;0.81;82.77
29825;BME280;16713;52.916;12.834;2023-03-07T05:49:16;98617.06;;;0.98;82.21
29825;BME280;16713;52.916;12.834;2023-03-07T05:51:42;98628.53;;;1.23;82.05
29825;BME280;16713;52.916;12.834;2023-03-07T05:54:08;98624.06;;;1.15;81.74
29825;BME280;16713;52.916;12.834;2023-03-07T05:56:35;98621.16;;;0.80;82.52
29825;BME280;16713;52.916;12.834;2023-03-07T05:59:03;98627.63;;;1.03;82.37
29825;BME280;16713;52.916;12.834;2023-03-07T06:01:32;98624.56;;;1.05;83.09
29825;BME280;16713;52.916;12.834;2023-03-07T06:03:59;98619.00;;;1.41;82.02
29825;BME280;16713;52.916;12.834;2023-03-07T06:06:25;98607.34;;;1.09;81.89
29825;BME280;16713;52.916;12.834;2023-03-07T06:08:52;98622.50;;;1.41;81.13
29825;BME280;16713;52.916;12.834;2023-03-07T06:11:18;98620.16;;;1.12;82.44
29825;BME280;16713;52.916;12.834;2023-03-07T06:13:44;98625.75;;;1.19;81.79
29825;BME280;16713;52.916;12.834;2023-03-07T06:16:11;98631.81;;;1.44;81.83
29825;BME280;16713;52.916;12.834;2023-03-07T06:18:37;98614.50;;;1.45;81.20
29825;BME280;16713;52.916;12.834;2023-03-07T06:21:04;98614.91;;;1.31;82.12
29825;BME280;16713;52.916;12.834;2023-03-07T06:23:32;98609.63;;;1.50;80.88
29825;BME280;16713;52.916;12.834;2023-03-07T06:25:59;98618.56;;;1.39;81.97
29825;BME280;16713;52.916;12.834;2023-03-07T06:28:26;98619.94;;;1.60;81.88
29825;BME280;16713;52.916;12.834;2023-03-07T06:30:52;98610.19;;;1.28;82.10
29825;BME280;16713;52.916;12.834;2023-03-07T06:33:19;98625.91;;;1.38;82.77
29825;BME280;16713;52.916;12.834;2023-03-07T06:35:46;98610.63;;;1.30;82.41
29825;BME280;16713;52.916;12.834;2023-03-07T06:38:13;98604.47;;;1.45;81.59
29825;BME280;16713;52.916;12.834;2023-03-07T06:40:40;98595.06;;;1.55;81.88
29825;BME280;16713;52.916;12.834;2023-03-07T06:43:06;98606.16;;;1.50;82.11
29825;BME280;16713;52.916;12.834;2023-03-07T06:45:32;98604.06;;;1.43;81.80
29825;BME280;16713;52.916;12.834;2023-03-07T06:47:59;98607.28;;;1.64;81.72
29825;BME280;16713;52.916;12.834;2023-03-07T06:50:25;98613.75;;;1.32;82.00
29825;BME280;16713;52.916;12.834;2023-03-07T06:53:00;98610.91;;;1.41;80.72
29825;BME280;16713;52.916;12.834;2023-03-07T06:55:27;98609.31;;;1.67;81.26
29825;BME280;16713;52.916;12.834;2023-03-07T06:57:53;98607.72;;;1.66;81.06
29825;BME280;16713;52.916;12.834;2023-03-07T07:00:20;98618.09;;;1.64;81.10
29825;BME280;16713;52.916;12.834;2023-03-07T07:02:47;98610.75;;;1.49;81.40
29825;BME280;16713;52.916;12.834;2023-03-07T07:05:15;98610.16;;;1.56;80.77
29825;BME280;16713;52.916;12.834;2023-03-07T07:07:41;98600.31;;;1.63;80.50
29825;BME280;16713;52.916;12.834;2023-03-07T07:10:08;98601.28;;;1.55;80.43
29825;BME280;16713;52.916;12.834;2023-03-07T07:12:35;98598.06;;;1.65;81.01
29825;BME280;16713;52.916;12.834;2023-03-07T07:15:01;98592.31;;;1.82;80.92
29825;BME280;16713;52.916;12.834;2023-03-07T07:17:30;98591.56;;;1.82;80.29
29825;BME280;16713;52.916;12.834;2023-03-07T07:19:57;98587.34;;;1.69;80.98
29825;BME280;16713;52.916;12.834;2023-03-07T07:22:23;98598.22;;;1.72;80.44
29825;BME280;16713;52.916;12.834;2023-03-07T07:24:49;98595.09;;;2.01;80.65
29825;BME280;16713;52.916;12.834;2023-03-07T07:27:16;98593.13;;;1.83;80.90
29825;BME280;16713;52.916;12.834;2023-03-07T07:29:42;98600.69;;;1.77;81.05
29825;BME280;16713;52.916;12.834;2023-03-07T07:32:09;98595.47;;;1.84;81.13
29825;BME280;16713;52.916;12.834;2023-03-07T07:34:35;98601.13;;;1.95;80.78
29825;BME280;16713;52.916;12.834;2023-03-07T07:37:01;98601.13;;;1.95;80.56
29825;BME280;16713;52.916;12.834;2023-03-07T07:39:28;98600.63;;;2.05;80.37
29825;BME280;16713;52.916;12.834;2023-03-07T07:41:54;98612.56;;;2.20;80.12
29825;BME280;16713;52.916;12.834;2023-03-07T07:44:21;98605.78;;;2.10;80.59
29825;BME280;16713;52.916;12.834;2023-03-07T07:46:47;98612.72;;;1.95;80.83
29825;BME280;16713;52.916;12.834;2023-03-07T07:49:14;98602.28;;;2.10;80.79
29825;BME280;16713;52.916;12.834;2023-03-07T07:51:43;98600.88;;;2.00;80.48
29825;BME280;16713;52.916;12.834;2023-03-07T07:54:10;98601.13;;;2.42;80.35
29825;BME280;16713;52.916;12.834;2023-03-07T07:56:36;98597.66;;;2.26;80.80
29825;BME280;16713;52.916;12.834;2023-03-07T07:59:02;98601.28;;;2.49;80.30
29825;BME280;16713;52.916;12.834;2023-03-07T08:01:29;98604.56;;;2.73;79.80
29825;BME280;16713;52.916;12.834;2023-03-07T08:03:55;98607.28;;;2.58;80.03
29825;BME280;16713;52.916;12.834;2023-03-07T08:06:22;98606.28;;;2.66;78.80
29825;BME280;16713;52.916;12.834;2023-03-07T08:08:49;98604.31;;;2.63;79.22
29825;BME280;16713;52.916;12.834;2023-03-07T08:11:16;98598.78;;;2.75;78.52
29825;BME280;16713;52.916;12.834;2023-03-07T08:13:42;98599.41;;;2.68;79.14
29825;BME280;16713;52.916;12.834;2023-03-07T08:18:35;98604.09;;;2.71;79.62
29825;BME280;16713;52.916;12.834;2023-03-07T08:21:01;98598.84;;;2.44;79.56
29825;BME280;16713;52.916;12.834;2023-03-07T08:23:28;98601.31;;;2.68;80.01
29825;BME280;16713;52.916;12.834;2023-03-07T08:25:54;98609.16;;;2.73;79.48
29825;BME280;16713;52.916;12.834;2023-03-07T08:28:20;98587.13;;;2.55;79.05
29825;BME280;16713;52.916;12.834;2023-03-07T08:30:47;98586.16;;;2.63;79.60
29825;BME280;16713;52.916;12.834;2023-03-07T08:33:13;98579.13;;;2.78;79.14
29825;BME280;16713;52.916;12.834;2023-03-07T08:35:40;98575.69;;;2.62;79.46
29825;BME280;16713;52.916;12.834;2023-03-07T08:38:07;98566.41;;;2.63;78.77
29825;BME280;16713;52.916;12.834;2023-03-07T08:40:34;98573.19;;;2.91;79.59
29825;BME280;16713;52.916;12.834;2023-03-07T08:43:00;98581.75;;;2.93;77.91
29825;BME280;16713;52.916;12.834;2023-03-07T08:45:26;98584.81;;;2.92;78.07
29825;BME280;16713;52.916;12.834;2023-03-07T08:47:53;98583.47;;;3.01;77.19
29825;BME280;16713;52.916;12.834;2023-03-07T08:50:20;98588.06;;;2.97;78.05
29825;BME280;16713;52.916;12.834;2023-03-07T08:52:48;98577.06;;;2.90;77.65
29825;BME280;16713;52.916;12.834;2023-03-07T08:55:14;98585.63;;;3.11;78.14
29825;BME280;16713;52.916;12.834;2023-03-07T08:57:42;98582.84;;;3.08;78.66
29825;BME280;16713;52.916;12.834;2023-03-07T09:00:08;98583.25;;;3.10;77.38
29825;BME280;16713;52.916;12.834;2023-03-07T09:02:35;98592.22;;;3.33;77.48
29825;BME280;16713;52.916;12.834;2023-03-07T09:05:01;98592.47;;;3.66;76.89
29825;BME280;16713;52.916;12.834;2023-03-07T09:07:28;98593.91;;;3.41;76.14
29825;BME280;16713;52.916;12.834;2023-03-07T09:09:54;98617.94;;;3.62;75.52
29825;BME280;16713;52.916;12.834;2023-03-07T09:12:21;98600.94;;;3.23;75.68
29825;BME280;16713;52.916;12.834;2023-03-07T09:14:47;98617.81;;;3.55;74.68
29825;BME280;16713;52.916;12.834;2023-03-07T09:17:13;98618.09;;;3.30;75.26
29825;BME280;16713;52.916;12.834;2023-03-07T09:19:40;98627.66;;;3.43;74.91
29825;BME280;16713;52.916;12.834;2023-03-07T09:22:07;98627.44;;;3.33;73.95
29825;BME280;16713;52.916;12.834;2023-03-07T09:24:33;98619.66;;;3.31;73.58
29825;BME280;16713;52.916;12.834;2023-03-07T09:27:00;98611.25;;;3.36;72.81
29825;BME280;16713;52.916;12.834;2023-03-07T09:29:26;98623.59;;;3.15;73.49
29825;BME280;16713;52.916;12.834;2023-03-07T09:31:52;98613.25;;;3.20;73.34
29825;BME280;16713;52.916;12.834;2023-03-07T09:34:19;98636.34;;;3.14;73.16
29825;BME280;16713;52.916;12.834;2023-03-07T09:36:45;98635.78;;;3.24;72.44
29825;BME280;16713;52.916;12.834;2023-03-07T09:39:12;98633.66;;;3.33;72.49
29825;BME280;16713;52.916;12.834;2023-03-07T09:42:01;98636.59;;;3.44;72.44
29825;BME280;16713;52.916;12.834;2023-03-07T09:44:35;98633.78;;;3.60;71.83
29825;BME280;16713;52.916;12.834;2023-03-07T09:49:39;98628.34;;;3.60;72.55
29825;BME280;16713;52.916;12.834;2023-03-07T09:52:10;98634.97;;;3.62;71.62
29825;BME280;16713;52.916;12.834;2023-03-07T09:57:16;98633.56;;;3.68;71.23
29825;BME280;16713;52.916;12.834;2023-03-07T09:59:45;98637.53;;;3.74;71.59
29825;BME280;16713;52.916;12.834;2023-03-07T10:04:41;98627.47;;;3.75;71.61
29825;BME280;16713;52.916;12.834;2023-03-07T10:07:12;98633.88;;;3.86;71.40
29825;BME280;16713;52.916;12.834;2023-03-07T10:09:40;98628.31;;;4.01;71.67
29825;BME280;16713;52.916;12.834;2023-03-07T10:19:47;98604.69;;;4.24;70.43
29825;BME280;16713;52.916;12.834;2023-03-07T10:24:56;98624.75;;;3.97;71.02
29825;BME280;16713;52.916;12.834;2023-03-07T10:27:27;98614.03;;;4.04;71.10
29825;BME280;16713;52.916;12.834;2023-03-07T10:29:55;98621.34;;;4.23;69.68
29825;BME280;16713;52.916;12.834;2023-03-07T10:35:18;98627.53;;;4.23;69.01
29825;BME280;16713;52.916;12.834;2023-03-07T10:42:59;98612.69;;;4.40;69.98
29825;BME280;16713;52.916;12.834;2023-03-07T10:45:29;98618.84;;;4.37;69.33
29825;BME280;16713;52.916;12.834;2023-03-07T10:48:03;98628.41;;;4.53;69.32
29825;BME280;16713;52.916;12.834;2023-03-07T10:53:03;98616.75;;;4.75;68.98
29825;BME280;16713;52.916;12.834;2023-03-07T10:55:35;98624.09;;;4.75;67.76
29825;BME280;16713;52.916;12.834;2023-03-07T11:01:00;98611.06;;;4.58;68.07
29825;BME280;16713;52.916;12.834;2023-03-07T11:06:24;98607.41;;;4.47;67.07
29825;BME280;16713;52.916;12.834;2023-03-07T11:08:51;98587.91;;;4.41;67.45
29825;BME280;16713;52.916;12.834;2023-03-07T11:11:30;98601.28;;;4.53;67.32
29825;BME280;16713;52.916;12.834;2023-03-07T11:14:07;98605.16;;;4.52;67.96
29825;BME280;16713;52.916;12.834;2023-03-07T11:24:51;98609.78;;;4.52;68.23
29825;BME280;16713;52.916;12.834;2023-03-07T11:27:22;98604.41;;;4.33;69.82
29825;BME280;16713;52.916;12.834;2023-03-07T11:30:05;98625.75;;;4.34;70.27
29825;BME280;16713;52.916;12.834;2023-03-07T11:32:31;98628.59;;;4.41;70.78
29825;BME280;16713;52.916;12.834;2023-03-07T11:35:02;98627.09;;;4.44;72.36
29825;BME280;16713;52.916;12.834;2023-03-07T11:37:42;98607.69;;;4.42;73.22
29825;BME280;16713;52.916;12.834;2023-03-07T11:50:29;98621.78;;;3.61;75.54
29825;BME280;16713;52.916;12.834;2023-03-07T12:01:33;98609.38;;;3.60;78.51
29825;BME280;16713;52.916;12.834;2023-03-07T12:03:47;98616.44;;;3.64;77.62
29825;BME280;16713;52.916;12.834;2023-03-07T12:11:19;98619.34;;;3.56;78.21
29825;BME280;16713;52.916;12.834;2023-03-07T12:16:22;98619.63;;;3.28;77.86
29825;BME280;16713;52.916;12.834;2023-03-07T12:24:05;98626.88;;;3.24;78.44
29825;BME280;16713;52.916;12.834;2023-03-07T12:26:52;98628.09;;;3.26;78.24
29825;BME280;16713;52.916;12.834;2023-03-07T12:31:49;98597.38;;;3.19;80.21
29825;BME280;16713;52.916;12.834;2023-03-07T12:36:57;98601.75;;;3.46;79.53
29825;BME280;16713;52.916;12.834;2023-03-07T12:49:40;98612.22;;;3.67;77.57
29825;BME280;16713;52.916;12.834;2023-03-07T12:52:19;98612.88;;;3.41;77.23
29825;BME280;16713;52.916;12.834;2023-03-07T12:55:30;98607.16;;;3.65;77.16
29825;BME280;16713;52.916;12.834;2023-03-07T12:57:39;98606.81;;;3.47;78.18
29825;BME280;16713;52.916;12.834;2023-03-07T13:00:09;98604.13;;;3.70;76.08
29825;BME280;16713;52.916;12.834;2023-03-07T13:02:39;98597.88;;;3.66;76.03
29825;BME280;16713;52.916;12.834;2023-03-07T13:05:14;98596.31;;;3.88;76.42
29825;BME280;16713;52.916;12.834;2023-03-07T13:07:42;98589.47;;;3.71;75.12
29825;BME280;16713;52.916;12.834;2023-03-07T13:10:10;98604.22;;;3.96;75.16
29825;BME280;16713;52.916;12.834;2023-03-07T13:12:39;98596.75;;;3.90;74.53
29825;BME280;16713;52.916;12.834;2023-03-07T13:16:02;98590.88;;;3.88;73.41
29825;BME280;16713;52.916;12.834;2023-03-07T13:22:55;98590.78;;;4.03;73.03
29825;BME280;16713;52.916;12.834;2023-03-07T13:30:25;98589.25;;;4.06;72.07
29825;BME280;16713;52.916;12.834;2023-03-07T13:43:00;98611.09;;;3.90;70.38
29825;BME280;16713;52.916;12.834;2023-03-07T13:53:10;98613.16;;;3.97;69.53
29825;BME280;16713;52.916;12.834;2023-03-07T13:55:39;98625.63;;;4.01;69.54
29825;BME280;16713;52.916;12.834;2023-03-07T14:00:56;98668.97;;;3.79;69.40
29825;BME280;16713;52.916;12.834;2023-03-07T14:03:25;98669.09;;;3.44;70.97
29825;BME280;16713;52.916;12.834;2023-03-07T14:05:54;98668.06;;;3.33;72.34
29825;BME280;16713;52.916;12.834;2023-03-07T14:08:22;98666.38;;;3.44;72.87
29825;BME280;16713;52.916;12.834;2023-03-07T14:10:49;98672.81;;;3.36;72.94
29825;BME280;16713;52.916;12.834;2023-03-07T14:13:19;98678.47;;;3.12;73.58
29825;BME280;16713;52.916;12.834;2023-03-07T14:15:53;98661.34;;;2.89;74.36
29825;BME280;16713;52.916;12.834;2023-03-07T14:21:19;98678.03;;;2.91;74.55
29825;BME280;16713;52.916;12.834;2023-03-07T14:26:24;98669.09;;;2.90;75.59
29825;BME280;16713;52.916;12.834;2023-03-07T14:29:01;98675.09;;;2.99;75.29
29825;BME280;16713;52.916;12.834;2023-03-07T14:31:28;98669.47;;;2.89;75.39
29825;BME280;16713;52.916;12.834;2023-03-07T14:33:56;98680.13;;;2.82;75.97
29825;BME280;16713;52.916;12.834;2023-03-07T14:36:23;98681.66;;;2.98;76.65
29825;BME280;16713;52.916;12.834;2023-03-07T14:38:52;98675.19;;;3.03;76.62
29825;BME280;16713;52.916;12.834;2023-03-07T14:41:29;98677.63;;;3.27;76.00
29825;BME280;16713;52.916;12.834;2023-03-07T14:46:56;98663.31;;;3.26;76.50
29825;BME280;16713;52.916;12.834;2023-03-07T14:49:32;98662.53;;;3.26;75.40
29825;BME280;16713;52.916;12.834;2023-03-07T14:52:03;98667.50;;;3.24;76.50
29825;BME280;16713;52.916;12.834;2023-03-07T14:54:31;98672.13;;;3.23;75.82
29825;BME280;16713;52.916;12.834;2023-03-07T14:56:58;98651.41;;;3.31;75.40
29825;BME280;16713;52.916;12.834;2023-03-07T14:59:25;98667.66;;;3.12;74.90
29825;BME280;16713;52.916;12.834;2023-03-07T15:01:55;98666.66;;;3.20;75.25
29825;BME280;16713;52.916;12.834;2023-03-07T15:04:28;98668.13;;;3.17;74.64
29825;BME280;16713;52.916;12.834;2023-03-07T15:06:59;98668.69;;;3.07;74.63
29825;BME280;16713;52.916;12.834;2023-03-07T15:09:26;98682.69;;;3.28;74.00
29825;BME280;16713;52.916;12.834;2023-03-07T15:14:21;98685.47;;;3.32;72.46
29825;BME280;16713;52.916;12.834;2023-03-07T15:16:50;98678.50;;;2.96;71.17
29825;BME280;16713;52.916;12.834;2023-03-07T15:21:46;98691.84;;;3.05;70.22